createdAt,value
2017-10-09T00:00:27.354Z,74.81
2017-10-09T00:02:54.935Z,74.95
2017-10-09T00:05:22.537Z,75.42
2017-10-09T00:07:50.112Z,75.53
2017-10-09T00:10:17.774Z,75.69
2017-10-09T00:12:45.356Z,75.39
2017-10-09T00:15:12.945Z,75.93
2017-10-09T00:17:40.540Z,76.33
2017-10-09T00:20:08.115Z,76.71
2017-10-09T00:22:35.718Z,76.44
2017-10-09T00:25:03.296Z,76.78
2017-10-09T00:27:30.881Z,76.59
2017-10-09T00:29:58.483Z,76.62
2017-10-09T00:32:26.060Z,76.75
2017-10-09T00:34:53.966Z,76.69
2017-10-09T00:37:21.828Z,76.63
2017-10-09T00:39:49.405Z,77.29
2017-10-09T00:42:17.029Z,77.60
2017-10-09T00:44:44.613Z,77.48
2017-10-09T00:47:12.224Z,77.44
2017-10-09T00:49:39.805Z,77.41
2017-10-09T00:52:07.391Z,77.64
2017-10-09T00:54:34.991Z,77.86
2017-10-09T00:57:02.564Z,78.01
2017-10-09T00:59:30.175Z,77.82
2017-10-09T01:01:57.781Z,78.24
2017-10-09T01:04:25.373Z,78.05
2017-10-09T01:06:52.979Z,78.24
2017-10-09T01:09:20.560Z,78.15
2017-10-09T01:11:48.189Z,78.57
2017-10-09T01:14:15.777Z,78.98
2017-10-09T01:16:43.725Z,79.15
2017-10-09T01:19:11.592Z,78.97
2017-10-09T01:21:39.471Z,78.89
2017-10-09T01:24:07.095Z,79.39
2017-10-09T01:26:34.670Z,79.71
2017-10-09T01:29:02.265Z,80.21
2017-10-09T01:31:29.872Z,79.82
2017-10-09T01:33:57.453Z,79.87
2017-10-09T01:36:25.070Z,79.66
2017-10-09T01:38:53.000Z,79.71
2017-10-09T01:41:20.600Z,79.61
2017-10-09T01:43:48.203Z,79.57
2017-10-09T01:46:15.785Z,79.16
2017-10-09T01:48:43.420Z,78.92
2017-10-09T01:51:11.001Z,78.91
2017-10-09T01:53:38.579Z,79.02
2017-10-09T01:56:06.175Z,78.84
2017-10-09T01:58:33.997Z,78.83
2017-10-09T02:01:01.609Z,78.52
2017-10-09T02:03:29.190Z,78.49
2017-10-09T02:05:56.783Z,78.37
2017-10-09T02:08:24.395Z,78.75
2017-10-09T02:10:51.974Z,78.78
2017-10-09T02:13:19.595Z,78.81
2017-10-09T02:15:47.170Z,78.81
2017-10-09T02:18:14.746Z,78.58
2017-10-09T02:20:42.344Z,78.69
2017-10-09T02:23:09.920Z,78.62
2017-10-09T02:25:37.546Z,79.14
2017-10-09T02:28:05.452Z,80.19
2017-10-09T02:30:33.035Z,81.17
2017-10-09T02:33:00.649Z,81.01
2017-10-09T02:35:28.229Z,81.01
2017-10-09T02:37:55.856Z,80.67
2017-10-09T02:40:23.449Z,80.45
2017-10-09T02:42:51.064Z,80.44
2017-10-09T02:45:18.685Z,80.57
2017-10-09T02:47:46.268Z,80.32
2017-10-09T02:50:14.212Z,80.09
2017-10-09T02:52:41.792Z,80.17
2017-10-09T02:55:09.381Z,80.55
2017-10-09T02:57:36.993Z,80.46
2017-10-09T03:00:04.586Z,80.87
2017-10-09T03:02:32.209Z,81.21
2017-10-09T03:04:59.782Z,81.66
2017-10-09T03:07:27.366Z,82.09
2017-10-09T03:09:54.984Z,82.03
2017-10-09T03:12:22.563Z,82.02
2017-10-09T03:14:50.185Z,81.73
2017-10-09T03:17:17.779Z,81.77
2017-10-09T03:19:45.370Z,81.59
2017-10-09T03:22:23.552Z,81.15
2017-10-09T03:24:53.069Z,81.15
2017-10-09T03:27:25.149Z,80.75
2017-10-09T03:29:52.997Z,80.66
2017-10-09T03:32:20.606Z,80.78
2017-10-09T03:34:48.423Z,80.60
2017-10-09T03:37:16.048Z,80.63
2017-10-09T03:39:43.951Z,80.57
2017-10-09T03:42:11.525Z,80.28
2017-10-09T03:44:39.126Z,80.14
2017-10-09T03:47:06.709Z,80.25
2017-10-09T03:49:34.603Z,80.32
2017-10-09T03:52:02.190Z,80.29
2017-10-09T03:54:29.773Z,80.50
2017-10-09T03:56:57.380Z,80.32
2017-10-09T03:59:25.361Z,80.65
2017-10-09T04:01:52.981Z,80.60
2017-10-09T04:04:20.558Z,80.59
2017-10-09T04:06:48.138Z,80.59
2017-10-09T04:09:15.741Z,80.70
2017-10-09T04:11:43.585Z,80.95
2017-10-09T04:14:11.551Z,80.62
2017-10-09T04:16:39.129Z,80.85
2017-10-09T04:19:07.083Z,80.94
2017-10-09T04:21:34.688Z,80.90
2017-10-09T04:24:02.273Z,81.69
2017-10-09T04:26:29.894Z,81.63
2017-10-09T04:28:57.730Z,81.78
2017-10-09T04:31:25.316Z,81.70
2017-10-09T04:33:53.370Z,81.41
2017-10-09T04:36:20.965Z,81.52
2017-10-09T04:38:48.897Z,81.07
2017-10-09T04:41:16.497Z,81.61
2017-10-09T04:43:44.109Z,81.38
2017-10-09T04:46:11.707Z,81.72
2017-10-09T04:48:39.288Z,81.40
2017-10-09T04:51:06.937Z,81.22
2017-10-09T04:53:34.769Z,81.32
2017-10-09T04:56:02.349Z,81.53
2017-10-09T04:58:30.004Z,81.45
2017-10-09T05:00:57.578Z,81.49
2017-10-09T05:03:25.197Z,81.34
2017-10-09T05:05:52.764Z,81.27
2017-10-09T05:08:20.338Z,81.23
2017-10-09T05:10:47.981Z,81.10
2017-10-09T05:13:15.875Z,81.35
2017-10-09T05:15:43.510Z,81.58
2017-10-09T05:18:11.099Z,81.69
2017-10-09T05:20:38.688Z,81.49
2017-10-09T05:23:06.300Z,81.49
2017-10-09T05:25:33.899Z,81.87
2017-10-09T05:28:01.524Z,82.48
2017-10-09T05:30:29.091Z,83.08
2017-10-09T05:32:56.671Z,83.52
2017-10-09T05:35:24.635Z,83.56
2017-10-09T05:37:52.605Z,83.76
2017-10-09T05:40:20.213Z,83.75
2017-10-09T05:42:47.910Z,83.67
2017-10-09T05:45:15.490Z,83.40
2017-10-09T05:47:43.104Z,83.24
2017-10-09T05:50:10.703Z,83.03
2017-10-09T05:52:38.321Z,83.15
2017-10-09T05:55:05.905Z,83.97
2017-10-09T05:57:33.484Z,84.16
2017-10-09T06:00:01.132Z,84.50
2017-10-09T06:02:28.722Z,84.25
2017-10-09T06:04:56.335Z,84.77
2017-10-09T06:07:24.261Z,85.26
2017-10-09T06:09:51.857Z,84.70
2017-10-09T06:12:19.559Z,84.35
2017-10-09T06:14:47.169Z,84.64
2017-10-09T06:17:14.789Z,84.43
2017-10-09T06:19:42.396Z,84.02
2017-10-09T06:22:10.008Z,84.02
2017-10-09T06:24:37.610Z,83.81
2017-10-09T06:27:05.236Z,83.77
2017-10-09T06:29:33.231Z,83.73
2017-10-09T06:32:00.833Z,83.17
2017-10-09T06:34:28.456Z,83.03
2017-10-09T06:36:56.274Z,83.10
2017-10-09T06:39:23.864Z,83.08
2017-10-09T06:41:51.748Z,83.06
2017-10-09T06:44:19.335Z,83.11
2017-10-09T06:46:46.976Z,82.76
2017-10-09T06:49:14.672Z,82.81
2017-10-09T06:51:42.303Z,82.82
2017-10-09T06:54:09.921Z,82.69
2017-10-09T06:56:37.510Z,82.97
2017-10-09T06:59:05.491Z,82.83
2017-10-09T07:01:33.088Z,82.78
2017-10-09T07:04:01.020Z,82.75
2017-10-09T07:06:28.885Z,82.92
2017-10-09T07:08:56.459Z,83.01
2017-10-09T07:11:24.092Z,82.80
2017-10-09T07:13:51.684Z,82.69
2017-10-09T07:16:19.537Z,82.59
2017-10-09T07:18:47.142Z,82.26
2017-10-09T07:21:14.757Z,81.54
2017-10-09T07:23:42.385Z,81.25
2017-10-09T07:26:10.293Z,80.74
2017-10-09T07:28:37.891Z,80.39
2017-10-09T07:31:05.496Z,80.38
2017-10-09T07:33:33.080Z,80.03
2017-10-09T07:36:00.702Z,79.83
2017-10-09T07:38:28.328Z,79.04
2017-10-09T07:40:55.904Z,78.66
2017-10-09T07:43:23.531Z,77.35
2017-10-09T07:45:51.158Z,76.85
2017-10-09T07:48:18.773Z,76.01
2017-10-09T07:53:20.104Z,75.46
2017-10-09T07:55:47.715Z,74.70
2017-10-09T07:58:15.343Z,74.62
2017-10-09T08:00:43.314Z,74.14
2017-10-09T08:03:10.902Z,74.30
2017-10-09T08:05:38.529Z,74.30
2017-10-09T08:08:06.129Z,74.27
2017-10-09T08:10:33.712Z,74.45
2017-10-09T08:13:01.625Z,74.28
2017-10-09T08:15:29.220Z,74.29
2017-10-09T08:17:56.835Z,73.82
2017-10-09T08:20:24.425Z,73.34
2017-10-09T08:22:52.017Z,73.52
2017-10-09T08:25:19.662Z,72.76
2017-10-09T08:27:47.506Z,72.73
2017-10-09T08:30:15.142Z,72.15
2017-10-09T08:32:42.793Z,72.17
2017-10-09T08:35:10.406Z,72.76
2017-10-09T08:37:38.021Z,72.15
2017-10-09T08:40:05.605Z,70.39
2017-10-09T08:42:33.240Z,70.18
2017-10-09T08:45:00.854Z,69.04
2017-10-09T08:47:28.452Z,68.67
2017-10-09T08:49:56.094Z,68.74
2017-10-09T08:52:23.697Z,67.16
2017-10-09T08:54:51.340Z,64.76
2017-10-09T08:57:19.256Z,63.13
2017-10-09T08:59:46.849Z,61.75
2017-10-09T09:02:14.510Z,61.07
2017-10-09T09:04:42.104Z,59.60
2017-10-09T09:07:09.737Z,59.52
2017-10-09T09:09:37.335Z,60.50
2017-10-09T09:12:04.939Z,60.37
2017-10-09T09:14:32.593Z,60.21
2017-10-09T09:17:00.175Z,59.84
2017-10-09T09:19:27.825Z,59.35
2017-10-09T09:21:55.413Z,59.43
2017-10-09T09:24:22.999Z,60.09
2017-10-09T09:26:51.085Z,59.59
2017-10-09T09:29:18.682Z,59.63
2017-10-09T09:31:46.621Z,60.89
2017-10-09T09:34:14.203Z,62.74
2017-10-09T09:36:42.295Z,61.59
2017-10-09T09:39:09.911Z,61.66
2017-10-09T09:41:37.486Z,60.94
2017-10-09T09:44:05.132Z,60.20
2017-10-09T09:46:33.031Z,60.24
2017-10-09T09:49:00.629Z,59.91
2017-10-09T09:51:28.561Z,60.45
2017-10-09T09:53:56.225Z,60.54
2017-10-09T09:56:23.852Z,59.88
2017-10-09T09:58:51.764Z,59.43
2017-10-09T10:01:19.353Z,60.11
2017-10-09T10:03:46.970Z,61.25
2017-10-09T10:06:14.569Z,61.03
2017-10-09T10:08:42.581Z,60.78
2017-10-09T10:11:10.190Z,60.04
2017-10-09T10:13:37.775Z,59.75
2017-10-09T10:16:05.702Z,59.18
2017-10-09T10:18:33.306Z,58.17
2017-10-09T10:21:00.928Z,59.06
2017-10-09T10:23:28.505Z,56.00
2017-10-09T10:25:56.127Z,55.26
2017-10-09T10:28:24.117Z,55.78
2017-10-09T10:30:51.712Z,57.01
2017-10-09T10:33:19.336Z,56.21
2017-10-09T10:35:46.930Z,56.44
2017-10-09T10:38:14.548Z,56.00
2017-10-09T10:40:42.172Z,55.70
2017-10-09T10:43:09.774Z,56.69
2017-10-09T10:45:37.755Z,58.34
2017-10-09T10:48:05.340Z,58.85
2017-10-09T10:50:32.926Z,59.69
2017-10-09T10:53:00.545Z,59.67
2017-10-09T10:55:28.373Z,59.86
2017-10-09T10:57:55.993Z,60.17
2017-10-09T11:00:23.648Z,60.29
2017-10-09T11:02:51.221Z,60.20
2017-10-09T11:05:18.833Z,60.06
2017-10-09T11:07:47.005Z,60.12
2017-10-09T11:10:14.624Z,57.06
2017-10-09T11:12:42.205Z,56.40
2017-10-09T11:15:09.808Z,56.67
2017-10-09T11:17:37.409Z,56.03
2017-10-09T11:20:05.000Z,53.92
2017-10-09T11:22:32.623Z,53.17
2017-10-09T11:25:00.219Z,51.13
2017-10-09T11:27:27.812Z,48.06
2017-10-09T11:29:55.424Z,46.82
2017-10-09T11:32:23.013Z,48.45
2017-10-09T11:34:50.632Z,50.19
2017-10-09T11:37:18.219Z,50.23
2017-10-09T11:39:45.825Z,49.35
2017-10-09T11:42:13.437Z,47.63
2017-10-09T11:44:41.270Z,46.52
2017-10-09T11:47:09.067Z,45.59
2017-10-09T11:49:36.661Z,47.00
2017-10-09T11:52:04.293Z,47.28
2017-10-09T11:54:31.882Z,48.41
2017-10-09T11:56:59.464Z,49.25
2017-10-09T11:59:27.080Z,49.69
2017-10-09T12:01:54.664Z,51.00
2017-10-09T12:04:22.272Z,51.64
2017-10-09T12:06:49.869Z,51.29
2017-10-09T12:09:17.893Z,52.36
2017-10-09T12:11:45.770Z,53.85
2017-10-09T12:14:13.637Z,54.95
2017-10-09T12:16:41.611Z,55.73
2017-10-09T12:19:09.194Z,54.83
2017-10-09T12:21:36.813Z,55.08
2017-10-09T12:26:38.534Z,54.50
2017-10-09T12:29:06.169Z,53.92
2017-10-09T12:31:33.761Z,53.95
2017-10-09T12:34:01.372Z,54.66
2017-10-09T12:36:28.958Z,54.36
2017-10-09T12:38:56.589Z,53.76
2017-10-09T12:41:24.172Z,54.67
2017-10-09T12:43:51.748Z,54.62
2017-10-09T12:46:19.360Z,54.32
2017-10-09T12:48:46.948Z,55.17
2017-10-09T12:51:14.623Z,54.39
2017-10-09T12:53:42.259Z,54.48
2017-10-09T12:56:09.844Z,54.03
2017-10-09T12:58:37.493Z,54.67
2017-10-09T13:01:05.076Z,54.88
2017-10-09T13:03:32.696Z,55.14
2017-10-09T13:06:00.304Z,55.77
2017-10-09T13:08:27.891Z,55.46
2017-10-09T13:10:55.525Z,55.41
2017-10-09T13:13:23.113Z,54.82
2017-10-09T13:15:50.745Z,54.52
2017-10-09T13:18:18.609Z,55.05
2017-10-09T13:20:47.748Z,56.39
2017-10-09T13:23:15.672Z,57.09
2017-10-09T13:25:43.543Z,58.36
2017-10-09T13:28:11.186Z,58.69
2017-10-09T13:30:38.810Z,59.00
2017-10-09T13:33:06.414Z,59.61
2017-10-09T13:35:34.046Z,60.11
2017-10-09T13:38:01.624Z,60.76
2017-10-09T13:40:29.279Z,60.65
2017-10-09T13:42:56.873Z,61.22
2017-10-09T13:45:24.460Z,61.54
2017-10-09T13:47:52.078Z,61.95
2017-10-09T13:50:19.665Z,62.44
2017-10-09T13:52:47.326Z,62.97
2017-10-09T13:55:14.922Z,62.90
2017-10-09T13:57:42.853Z,63.01
2017-10-09T14:00:10.477Z,63.04
2017-10-09T14:05:05.430Z,64.51
2017-10-09T14:07:33.013Z,64.72
2017-10-09T14:10:00.737Z,65.49
2017-10-09T14:12:28.359Z,66.31
2017-10-09T14:14:55.940Z,67.31
2017-10-09T14:17:23.552Z,67.85
2017-10-09T14:19:51.144Z,69.09
2017-10-09T14:22:18.732Z,70.03
2017-10-09T14:24:46.380Z,70.14
2017-10-09T14:27:13.972Z,69.87
2017-10-09T14:29:41.609Z,70.07
2017-10-09T14:42:00.219Z,72.67
2017-10-09T14:44:27.817Z,72.53
2017-10-09T14:46:55.419Z,74.13
2017-10-09T14:49:23.041Z,76.23
2017-10-09T14:51:50.633Z,76.28
2017-10-09T14:54:18.267Z,77.52
2017-10-09T14:56:45.855Z,78.61
2017-10-09T14:59:13.448Z,79.81
2017-10-09T15:01:41.074Z,80.38
2017-10-09T15:04:08.677Z,80.87
2017-10-09T15:06:36.338Z,81.49
2017-10-09T15:09:03.929Z,81.99
2017-10-09T15:11:31.545Z,82.43
2017-10-09T15:13:59.171Z,82.56
2017-10-09T15:16:26.757Z,82.72
2017-10-09T15:18:54.720Z,83.00
2017-10-09T15:21:22.690Z,83.28
2017-10-09T15:23:50.290Z,83.38
2017-10-09T15:26:17.906Z,83.78
2017-10-09T15:28:45.493Z,84.20
2017-10-09T15:31:13.157Z,84.61
2017-10-09T15:33:40.755Z,84.56
2017-10-09T15:36:08.353Z,84.71
2017-10-09T15:38:36.321Z,84.20
2017-10-09T15:41:03.916Z,84.38
2017-10-09T15:43:31.553Z,84.20
2017-10-09T15:45:59.179Z,84.70
2017-10-09T15:48:26.787Z,84.69
2017-10-09T15:50:54.751Z,84.55
2017-10-09T15:53:22.333Z,84.70
2017-10-09T15:55:50.401Z,85.45
2017-10-09T15:58:18.001Z,85.58
2017-10-09T16:00:45.597Z,85.87
2017-10-09T16:03:13.221Z,85.52
2017-10-09T16:05:41.130Z,86.00
2017-10-09T16:08:08.776Z,85.74
2017-10-09T16:10:36.369Z,85.52
2017-10-09T16:13:03.961Z,86.02
2017-10-09T16:15:31.585Z,85.61
2017-10-09T16:17:59.180Z,85.27
2017-10-09T16:20:26.808Z,85.28
2017-10-09T16:22:54.664Z,85.63
2017-10-09T16:25:22.257Z,85.62
2017-10-09T16:27:49.867Z,85.36
2017-10-09T16:30:17.765Z,85.07
2017-10-09T16:32:45.385Z,85.17
2017-10-09T16:35:13.291Z,84.68
2017-10-09T16:37:41.088Z,84.37
2017-10-09T16:40:08.711Z,84.49
2017-10-09T16:42:36.306Z,84.39
2017-10-09T16:45:03.932Z,84.41
2017-10-09T16:47:31.526Z,84.66
2017-10-09T16:49:59.136Z,84.96
2017-10-09T16:52:26.763Z,84.83
2017-10-09T16:54:54.376Z,85.12
2017-10-09T16:57:21.996Z,85.00
2017-10-09T16:59:49.915Z,84.84
2017-10-09T17:02:17.518Z,85.13
2017-10-09T17:04:45.764Z,85.31
2017-10-09T17:07:13.428Z,85.58
2017-10-09T17:09:41.396Z,85.83
2017-10-09T17:12:09.705Z,85.86
2017-10-09T17:14:37.321Z,85.94
2017-10-09T17:17:04.936Z,85.62
2017-10-09T17:19:32.535Z,85.59
2017-10-09T17:22:00.174Z,85.75
2017-10-09T17:24:27.763Z,85.46
2017-10-09T17:26:55.359Z,85.62
2017-10-09T17:29:22.981Z,85.82
2017-10-09T17:31:50.575Z,86.08
2017-10-09T17:34:18.209Z,85.99
2017-10-09T17:36:45.793Z,86.05
2017-10-09T17:39:13.385Z,86.15
2017-10-09T17:41:41.002Z,86.39
2017-10-09T17:44:09.328Z,86.20
2017-10-09T17:46:37.075Z,86.48
2017-10-09T17:49:04.670Z,86.25
2017-10-09T17:51:32.268Z,86.64
2017-10-09T17:53:59.896Z,86.52
2017-10-09T17:56:27.492Z,86.45
2017-10-09T17:58:55.128Z,86.76
2017-10-09T18:01:22.728Z,86.77
2017-10-09T18:03:50.330Z,87.33
2017-10-09T18:06:18.231Z,87.05
2017-10-09T18:08:45.844Z,87.04
2017-10-09T18:11:13.470Z,86.93
2017-10-09T18:13:41.089Z,86.94
2017-10-09T18:16:08.684Z,86.98
2017-10-09T18:18:36.306Z,86.87
2017-10-09T18:21:03.902Z,86.80
2017-10-09T18:23:31.541Z,86.94
2017-10-09T18:25:59.140Z,86.67
2017-10-09T18:28:26.738Z,86.71
2017-10-09T18:30:54.356Z,86.78
2017-10-09T18:33:21.955Z,86.61
2017-10-09T18:35:49.580Z,87.10
2017-10-09T18:38:17.185Z,86.86
2017-10-09T18:40:44.789Z,87.17
2017-10-09T18:43:12.454Z,87.10
2017-10-09T18:45:40.045Z,87.19
2017-10-09T18:48:07.681Z,87.10
2017-10-09T18:50:35.295Z,86.47
2017-10-09T18:53:02.889Z,86.58
2017-10-09T18:55:30.549Z,86.29
2017-10-09T18:57:58.137Z,86.56
2017-10-09T19:00:25.797Z,86.36
2017-10-09T19:02:53.637Z,86.39
2017-10-09T19:05:21.250Z,86.12
2017-10-09T19:07:49.221Z,85.91
2017-10-09T19:10:16.809Z,86.04
2017-10-09T19:12:44.417Z,86.24
2017-10-09T19:15:12.049Z,86.52
2017-10-09T19:17:39.974Z,85.98
2017-10-09T19:20:07.575Z,85.88
2017-10-09T19:22:35.193Z,85.86
2017-10-09T19:25:02.816Z,85.89
2017-10-09T19:27:30.455Z,85.57
2017-10-09T19:29:58.040Z,85.32
2017-10-09T19:32:25.874Z,85.82
2017-10-09T19:34:53.501Z,85.74
2017-10-09T19:37:21.113Z,85.61
2017-10-09T19:39:48.768Z,85.47
2017-10-09T19:42:16.355Z,85.35
2017-10-09T19:44:43.958Z,85.16
2017-10-09T19:47:11.581Z,85.08
2017-10-09T19:49:39.167Z,85.23
2017-10-09T19:52:06.801Z,85.01
2017-10-09T19:54:34.718Z,85.21
2017-10-09T19:57:02.348Z,84.88
2017-10-09T19:59:29.965Z,84.77
2017-10-09T20:01:58.298Z,84.83
2017-10-09T20:04:25.941Z,84.92
2017-10-09T20:06:53.528Z,84.93
2017-10-09T20:09:21.113Z,85.00
2017-10-09T20:11:48.778Z,84.95
2017-10-09T20:14:16.363Z,85.04
2017-10-09T20:16:43.994Z,84.89
2017-10-09T20:19:11.623Z,84.93
2017-10-09T20:21:39.221Z,84.83
2017-10-09T20:24:06.854Z,85.06
2017-10-09T20:26:34.447Z,85.09
2017-10-09T20:29:02.075Z,85.09
2017-10-09T20:31:30.259Z,85.34
2017-10-09T20:33:58.079Z,85.12
2017-10-09T20:36:26.565Z,85.03
2017-10-09T20:38:54.213Z,85.02
2017-10-09T20:41:22.161Z,84.99
2017-10-09T20:43:49.779Z,85.16
2017-10-09T20:46:17.378Z,85.15
2017-10-09T20:48:45.007Z,84.97
2017-10-09T20:51:12.594Z,84.95
2017-10-09T20:53:40.241Z,84.94
2017-10-09T20:56:07.866Z,85.29
2017-10-09T20:58:35.473Z,85.39
2017-10-09T21:01:03.085Z,85.42
2017-10-09T21:03:30.680Z,85.67
2017-10-09T21:05:58.581Z,85.93
2017-10-09T21:08:26.169Z,85.98
2017-10-09T21:10:53.758Z,86.13
2017-10-09T21:13:21.437Z,86.31
2017-10-09T21:15:49.032Z,86.76
2017-10-09T21:18:16.721Z,87.01
2017-10-09T21:20:44.365Z,87.10
2017-10-09T21:23:11.970Z,86.84
2017-10-09T21:25:39.598Z,86.66
2017-10-09T21:28:07.192Z,86.71
2017-10-09T21:30:34.829Z,87.39
2017-10-09T21:33:02.427Z,87.49
2017-10-09T21:35:30.029Z,87.82
2017-10-09T21:37:57.645Z,87.59
2017-10-09T21:40:25.270Z,87.89
2017-10-09T21:42:52.927Z,88.21
2017-10-09T21:45:20.527Z,88.00
2017-10-09T21:47:48.121Z,87.85
2017-10-09T21:50:15.730Z,87.97
2017-10-09T21:52:43.578Z,88.01
2017-10-09T21:55:11.204Z,88.29
2017-10-09T21:57:38.863Z,88.70
2017-10-09T22:00:06.459Z,88.74
2017-10-09T22:02:34.068Z,88.56
2017-10-09T22:05:02.101Z,88.47
2017-10-09T22:07:29.729Z,88.69
2017-10-09T22:09:57.323Z,88.83
2017-10-09T22:12:24.909Z,88.69
2017-10-09T22:14:52.535Z,88.79
2017-10-09T22:17:20.125Z,89.03
2017-10-09T22:19:47.750Z,89.52
2017-10-09T22:22:15.334Z,89.82
2017-10-09T22:24:43.291Z,89.84
2017-10-09T22:27:10.899Z,89.64
2017-10-09T22:29:38.720Z,89.62
2017-10-09T22:32:06.345Z,89.71
2017-10-09T22:34:33.937Z,89.83
2017-10-09T22:37:01.532Z,89.91
2017-10-09T22:39:29.144Z,89.79
2017-10-09T22:41:56.743Z,90.39
2017-10-09T22:44:24.373Z,90.33
2017-10-09T22:46:51.959Z,90.40
2017-10-09T22:49:19.544Z,90.44
2017-10-09T22:51:47.397Z,90.31
2017-10-09T22:54:14.992Z,90.41
2017-10-09T22:56:42.642Z,90.49
2017-10-09T23:00:00.317Z,90.70
2017-10-09T23:02:28.311Z,90.65
2017-10-09T23:04:55.913Z,90.55
2017-10-09T23:07:23.520Z,90.49
2017-10-09T23:09:51.138Z,90.70
2017-10-09T23:12:18.733Z,90.80
2017-10-09T23:14:46.374Z,90.77
2017-10-09T23:17:13.953Z,90.64
2017-10-09T23:19:41.545Z,90.62
2017-10-09T23:22:09.517Z,90.96
2017-10-09T23:24:37.114Z,91.02
2017-10-09T23:27:04.742Z,91.03
2017-10-09T23:29:32.333Z,90.95
2017-10-09T23:31:59.925Z,91.00
2017-10-09T23:34:27.553Z,91.09
2017-10-09T23:36:55.386Z,91.07
2017-10-09T23:39:23.000Z,91.05
2017-10-09T23:41:50.585Z,90.92
2017-10-09T23:44:18.185Z,91.05
2017-10-09T23:46:46.152Z,91.16
2017-10-09T23:49:13.740Z,91.18
2017-10-09T23:51:41.372Z,91.32
2017-10-09T23:54:08.961Z,91.22
2017-10-09T23:56:36.572Z,91.26
2017-10-09T23:59:04.194Z,91.32
